Albany, New York
Traffic Map
Current Weather Conditions
Albany, New York
Overcast
Overcast
10°
Feels Like: 10°
Wind Chill: 10° Ceiling: 3000
Heat Index: 10° Visibility: 10mi
Dew Point: Wind: 6mph
Humidity: 86% Direction: 10° (N)
Pressure: 30.32in Gusts: 0mph
Raw Report DataKALB 010820Z 01005KT 10SM SCT007 SCT020 OVC030 10/08 A3032 RMK AO2 T01000078
Traffic Incident Summary
Active as of:
Severity:
Category:
InformationThere was an issue retrieving the traffic information for this location. Please try a different location or try again shortly.
Advertisements
Track Severe Weather on mobile